<?xml version="1.0" encoding="UTF-8" standalone="no" ?>
<gpx xmlns="http://www.topografix.com/GPX/1/1" xmlns:xsi="http://www.w3.org/2001/XMLSchema-instance" xsi:schemaLocation="http://www.topografix.com/GPX/1/1 http://www.topografix.com/GPX/1/1/gpx.xsd" version="1.1" creator="VisuGPX - https://www.visugpx.com">
  <metadata>
    <name>boucles beaumont</name>
    <desc><![CDATA[boucles beaumont du périgord]]></desc>
  </metadata>
  <trk>
    <name><![CDATA[BBmt13]]></name>
    <trkseg>
      <trkpt lat="44.77689" lon="0.7045">
        <ele>126</ele>
        <time>2009-06-18T16:43:36Z</time>
      </trkpt>
      <trkpt lat="44.77809" lon="0.70164">
        <ele>131</ele>
        <time>2008-12-08T15:11:21Z</time>
      </trkpt>
      <trkpt lat="44.77838" lon="0.7016">
        <ele>130</ele>
        <time>2008-12-08T15:11:29Z</time>
      </trkpt>
      <trkpt lat="44.77858" lon="0.7016">
        <ele>130</ele>
        <time>2008-12-08T15:11:32Z</time>
      </trkpt>
      <trkpt lat="44.77883" lon="0.70168">
        <ele>133</ele>
        <time>2008-12-08T15:11:36Z</time>
      </trkpt>
      <trkpt lat="44.77898" lon="0.70183">
        <ele>139</ele>
        <time>2008-12-08T15:11:48Z</time>
      </trkpt>
      <trkpt lat="44.77913" lon="0.70198">
        <ele>140</ele>
        <time>2008-12-08T15:11:52Z</time>
      </trkpt>
      <trkpt lat="44.77928" lon="0.70178">
        <ele>141</ele>
        <time>2008-12-08T15:12:07Z</time>
      </trkpt>
      <trkpt lat="44.77928" lon="0.70145">
        <ele>139</ele>
        <time>2008-12-08T15:12:09Z</time>
      </trkpt>
      <trkpt lat="44.77935" lon="0.70095">
        <ele>134</ele>
        <time>2008-12-08T15:12:12Z</time>
      </trkpt>
      <trkpt lat="44.77943" lon="0.70063">
        <ele>132</ele>
        <time>2008-12-08T15:12:14Z</time>
      </trkpt>
      <trkpt lat="44.77945" lon="0.70028">
        <ele>130</ele>
        <time>2008-12-08T15:12:16Z</time>
      </trkpt>
      <trkpt lat="44.77948" lon="0.69993">
        <ele>128</ele>
        <time>2008-12-08T15:12:18Z</time>
      </trkpt>
      <trkpt lat="44.77945" lon="0.69943">
        <ele>127</ele>
        <time>2008-12-08T15:12:21Z</time>
      </trkpt>
      <trkpt lat="44.77945" lon="0.69908">
        <ele>125</ele>
        <time>2008-12-08T15:12:23Z</time>
      </trkpt>
      <trkpt lat="44.77948" lon="0.69878">
        <ele>123</ele>
        <time>2008-12-08T15:12:25Z</time>
      </trkpt>
      <trkpt lat="44.77953" lon="0.69833">
        <ele>123</ele>
        <time>2008-12-08T15:12:28Z</time>
      </trkpt>
      <trkpt lat="44.77955" lon="0.69795">
        <ele>123</ele>
        <time>2008-12-08T15:12:31Z</time>
      </trkpt>
      <trkpt lat="44.77953" lon="0.69763">
        <ele>124</ele>
        <time>2008-12-08T15:12:34Z</time>
      </trkpt>
      <trkpt lat="44.77965" lon="0.69738">
        <ele>133</ele>
        <time>2008-12-08T15:15:43Z</time>
      </trkpt>
      <trkpt lat="44.77948" lon="0.69725">
        <ele>121</ele>
        <time>2008-12-08T15:16:26Z</time>
      </trkpt>
      <trkpt lat="44.77925" lon="0.69718">
        <ele>119</ele>
        <time>2008-12-08T15:16:29Z</time>
      </trkpt>
      <trkpt lat="44.77908" lon="0.69708">
        <ele>117</ele>
        <time>2008-12-08T15:16:32Z</time>
      </trkpt>
      <trkpt lat="44.77893" lon="0.69725">
        <ele>112</ele>
        <time>2008-12-08T15:16:47Z</time>
      </trkpt>
      <trkpt lat="44.77883" lon="0.6975">
        <ele>111</ele>
        <time>2008-12-08T15:16:51Z</time>
      </trkpt>
      <trkpt lat="44.77873" lon="0.69775">
        <ele>109</ele>
        <time>2008-12-08T15:16:55Z</time>
      </trkpt>
    </trkseg>
  </trk>
</gpx>